Hlavní strana
METAR-TAF:

METAR-TAF

Letiště :

Eugene, Oregon, Spojené státy americké

zeměpisná šířka: 44-08-00N, zeměpisná délka: 123-12-52W, výška: 111 m

Aktuální stav počasí

Zpráva byla vytvořena před 6 minutami, v 12:54 UTC
Severoseverovýchodní vítr 3 kt
Teplota 5°C
Vlhkost vzduchu 87%
Tlak 1023 hPa
Viditelnost: 16.1 km
Jasno

METAR: KEUG 081254Z 03003KT 10SM CLR 05/03 A3021 RMK AO2 SLP230 T00500028

Čas: 06:00 (13:00 UTC)

Předpověď počasí

Zpráva byla vytvořena před 1 hodinou a 27 minutami, v 11:33 UTC
Předpověď platná od 08 v 12 UTC do 09 v 12 UTC
Severní vítr 7 kt
Viditelnost: 10 km
Jasno
Od 08 v 1700 UTC
Severoseverovýchodní vítr 11 kt s nárazy do 20 kt
Viditelnost: 10 km
Jasno
Od 09 v 0300 UTC
Severní vítr 7 kt
Viditelnost: 10 km
Jasno
Od 09 v 1000 UTC
vítr z různých směrů 3 kt
Viditelnost: 10 km
Jasno

TAF: KEUG 081133Z 0812/0912 01007KT P6SM SKC FM081700 02011G20KT P6SM SKC FM090300 35007KT P6SM SKC FM091000 VRB03KT P6SM SKC

Stav a předpovědi počasí z více než 4 000 letišť (zprávy METAR a TAF).

Červené a žluté tečky na mapě představují dostupné meteorologické stanice.

Když kurzor umístíte na tečku, zobrazí se název stanice.

Pak kliknutím zobrazíte stav a předpověď počasí.

Chcete-li změnit mapu, kliknutím na zelené tlačítko se znaménkem +mapu přiblížíte, kliknutím na zelené tlačítko se znaménkem – mapu oddálíte a kliknutím na zelené šipky přejdete na sousední mapy.


METAR-TAF: